Time;durP1;ratioP1;P1;durP2;ratioP2;P2;SDS_P1;SDS_P2;PMS_P1;PMS_P2;Temp;Humidity;BMP_temperature;BMP_pressure;BME280_temperature;BME280_humidity;BME280_pressure;Samples;Min_cycle;Max_cycle;Signal;HPM_P1;HPM_P2
2023/07/05 00:02:07;;;;;;;7.73;2.67;;;;;;;;;;4989246;28;20187;-68
2023/07/05 00:13:02;;;;;;;8.23;2.40;;;;;;;;;;4989213;28;20317;-67
2023/07/05 00:19:28;;;;;;;4.67;2.30;;;;;;;;;;4988942;28;20187;-67
2023/07/05 00:25:55;;;;;;;4.37;2.20;;;;;;;;;;4989279;28;20199;-67
2023/07/05 00:32:21;;;;;;;5.80;2.60;;;;;;;;;;4989016;28;20990;-67
2023/07/05 00:38:48;;;;;;;2.57;2.37;;;;;;;;;;5008488;28;20247;-67
2023/07/05 00:45:15;;;;;;;4.37;2.40;;;;;;;;;;5008527;28;20218;-67
2023/07/05 00:51:46;;;;;;;4.23;2.33;;;;;;;;;;5006874;28;20218;-67
2023/07/05 01:30:42;;;;;;;6.27;3.30;;;;;;;;;;4988430;28;20177;-68
2023/07/05 01:41:41;;;;;;;4.50;2.57;;;;;;;;;;4854245;29;20228;-68
2023/07/05 01:48:22;;;;;;;5.90;3.23;;;;;;;;;;4869933;29;20183;-69
2023/07/05 01:58:55;;;;;;;4.27;2.93;;;;;;;;;;4908661;29;20206;-68
2023/07/05 02:13:45;;;;;;;3.17;2.33;;;;;;;;;;4953348;28;20809;-68
2023/07/05 02:20:12;;;;;;;5.20;2.30;;;;;;;;;;5007804;28;20285;-68
2023/07/05 02:30:37;;;;;;;5.70;2.50;;;;;;;;;;4971133;28;20255;-68
2023/07/05 02:41:08;;;;;;;2.93;2.40;;;;;;;;;;4991442;28;20220;-68
2023/07/05 02:47:35;;;;;;;4.50;2.57;;;;;;;;;;4991376;28;20199;-69
2023/07/05 02:54:02;;;;;;;3.93;2.60;;;;;;;;;;4971348;28;20985;-69
2023/07/05 03:00:29;;;;;;;4.77;2.60;;;;;;;;;;4952517;28;20188;-69
2023/07/05 03:06:56;;;;;;;5.57;2.80;;;;;;;;;;4990904;28;20231;-69
2023/07/05 03:13:26;;;;;;;6.57;2.83;;;;;;;;;;4970635;28;20271;-70
2023/07/05 03:28:43;;;;;;;3.73;2.90;;;;;;;;;;4872772;29;20245;-69
2023/07/05 03:39:50;;;;;;;4.03;2.70;;;;;;;;;;4818512;29;20788;-69
2023/07/05 03:50:20;;;;;;;4.40;3.00;;;;;;;;;;4842593;29;20259;-69
2023/07/05 04:00:45;;;;;;;4.80;2.57;;;;;;;;;;4925809;29;20278;-62
2023/07/05 04:07:06;;;;;;;5.43;2.80;;;;;;;;;;4927645;29;20254;-62
2023/07/05 04:13:32;;;;;;;7.20;3.20;;;;;;;;;;4965752;28;20224;-61
2023/07/05 04:19:58;;;;;;;6.67;3.07;;;;;;;;;;4969688;28;20699;-61
2023/07/05 04:26:35;;;;;;;6.93;3.37;;;;;;;;;;4969332;28;20219;-62
2023/07/05 04:40:56;;;;;;;8.00;3.27;;;;;;;;;;4980455;28;20273;-62
2023/07/05 04:47:22;;;;;;;6.00;3.70;;;;;;;;;;4952109;28;20197;-63
2023/07/05 04:53:48;;;;;;;3.73;3.20;;;;;;;;;;4988482;28;20236;-62
2023/07/05 05:00:16;;;;;;;4.73;3.10;;;;;;;;;;4957934;28;20208;-63
2023/07/05 05:06:43;;;;;;;4.77;3.10;;;;;;;;;;4949638;29;20988;-63
2023/07/05 05:13:10;;;;;;;5.57;3.23;;;;;;;;;;4988055;28;20212;-63
2023/07/05 05:19:36;;;;;;;5.90;2.70;;;;;;;;;;4969213;28;20230;-62
2023/07/05 05:26:13;;;;;;;5.23;2.80;;;;;;;;;;4968887;28;20176;-62
2023/07/05 05:32:41;;;;;;;5.77;2.63;;;;;;;;;;4972302;28;20300;-62
2023/07/05 05:43:20;;;;;;;4.93;3.00;;;;;;;;;;4987968;28;20646;-62
2023/07/05 05:49:46;;;;;;;4.57;3.10;;;;;;;;;;4987726;28;20195;-62
2023/07/05 05:56:13;;;;;;;4.53;3.43;;;;;;;;;;4991788;28;20175;-62
2023/07/05 06:02:39;;;;;;;5.00;3.30;;;;;;;;;;5010738;28;20190;-61
2023/07/05 06:09:07;;;;;;;10.03;3.50;;;;;;;;;;5015103;28;20183;-61
2023/07/05 06:20:07;;;;;;;3.63;2.07;;;;;;;;;;4896651;29;20328;-62
2023/07/05 06:30:41;;;;;;;4.57;2.40;;;;;;;;;;4931072;29;20217;-61
2023/07/05 06:45:36;;;;;;;4.93;2.03;;;;;;;;;;4999400;28;20204;-62
2023/07/05 06:52:05;;;;;;;3.43;1.50;;;;;;;;;;4985748;28;20264;-62
2023/07/05 06:58:31;;;;;;;3.90;1.63;;;;;;;;;;4990396;28;20180;-61
2023/07/05 07:04:58;;;;;;;4.60;1.27;;;;;;;;;;4987969;28;20211;-63
2023/07/05 07:11:25;;;;;;;5.53;1.40;;;;;;;;;;4949983;29;20200;-62
2023/07/05 07:17:52;;;;;;;3.87;1.93;;;;;;;;;;4970834;28;20280;-62
2023/07/05 07:24:18;;;;;;;4.90;1.57;;;;;;;;;;4984543;28;20265;-63
2023/07/05 07:30:44;;;;;;;3.97;1.50;;;;;;;;;;4989417;28;20183;-61
2023/07/05 07:37:10;;;;;;;3.43;1.67;;;;;;;;;;4984527;28;20200;-61
2023/07/05 07:47:37;;;;;;;4.13;1.60;;;;;;;;;;4961316;28;20184;-61
2023/07/05 07:53:57;;;;;;;4.23;1.30;;;;;;;;;;4966702;28;20282;-62
2023/07/05 08:01:09;;;;;;;3.83;1.53;;;;;;;;;;4911267;29;20230;-61
2023/07/05 08:12:38;;;;;;;2.13;1.37;;;;;;;;;;4865811;29;20279;-62
2023/07/05 08:23:05;;;;;;;1.67;1.13;;;;;;;;;;4921445;29;20674;-60
2023/07/05 08:33:24;;;;;;;2.93;0.93;;;;;;;;;;4969357;28;20264;-60
2023/07/05 08:39:51;;;;;;;2.80;1.00;;;;;;;;;;4950524;29;20299;-61
2023/07/05 08:50:31;;;;;;;1.63;1.10;;;;;;;;;;5004274;28;20178;-62
2023/07/05 08:57:05;;;;;;;2.47;1.50;;;;;;;;;;5008769;28;20234;-69
2023/07/05 09:03:32;;;;;;;4.70;1.30;;;;;;;;;;5008802;28;20190;-69
2023/07/05 09:10:09;;;;;;;3.20;1.50;;;;;;;;;;5006249;28;20186;-69
2023/07/05 09:16:41;;;;;;;5.33;1.43;;;;;;;;;;5008016;28;20183;-69
2023/07/05 09:23:51;;;;;;;5.40;1.70;;;;;;;;;;4966295;28;20180;-69
2023/07/05 09:30:28;;;;;;;2.87;1.50;;;;;;;;;;4965181;28;20888;-68
2023/07/05 09:36:54;;;;;;;3.70;1.40;;;;;;;;;;4966482;28;20208;-69
2023/07/05 09:43:33;;;;;;;3.97;1.80;;;;;;;;;;4966373;28;20171;-68
2023/07/05 09:54:36;;;;;;;1.97;1.47;;;;;;;;;;4968965;28;20296;-68
2023/07/05 10:01:04;;;;;;;4.80;2.07;;;;;;;;;;4968525;28;20176;-68
2023/07/05 10:07:32;;;;;;;5.33;1.83;;;;;;;;;;4988001;28;20539;-68
2023/07/05 10:21:46;;;;;;;4.60;1.70;;;;;;;;;;4930280;29;20211;-68
2023/07/05 10:28:15;;;;;;;6.43;2.20;;;;;;;;;;4908696;29;20238;-68
2023/07/05 10:34:43;;;;;;;5.63;2.57;;;;;;;;;;4926951;29;21047;-68
2023/07/05 10:41:20;;;;;;;8.33;2.40;;;;;;;;;;4930518;29;20202;-68
2023/07/05 10:47:47;;;;;;;6.20;2.37;;;;;;;;;;4949727;29;20280;-68
2023/07/05 11:03:11;;;;;;;5.70;3.03;;;;;;;;;;4875117;29;20299;-68
2023/07/05 11:14:03;;;;;;;4.77;3.00;;;;;;;;;;4860576;29;20245;-68
2023/07/05 11:24:37;;;;;;;5.73;3.57;;;;;;;;;;4882364;29;20227;-67
2023/07/05 11:35:33;;;;;;;5.20;3.90;;;;;;;;;;4846595;29;20271;-67
2023/07/05 11:41:54;;;;;;;7.60;3.43;;;;;;;;;;4860124;29;20240;-67
2023/07/05 11:52:55;;;;;;;5.87;3.47;;;;;;;;;;4848280;29;20378;-67
2023/07/05 11:59:22;;;;;;;6.30;4.20;;;;;;;;;;4872460;29;20193;-68
2023/07/05 12:09:47;;;;;;;6.97;3.70;;;;;;;;;;4874061;29;20282;-67
2023/07/05 12:16:14;;;;;;;6.18;3.85;;;;;;;;;;4550186;29;10020518;-67
2023/07/05 12:26:46;;;;;;;7.97;6.00;;;;;;;;;;4970007;28;20189;-67
2023/07/05 12:33:19;;;;;;;8.10;5.00;;;;;;;;;;4969682;28;20300;-67
2023/07/05 12:39:45;;;;;;;6.50;5.20;;;;;;;;;;4969912;28;20595;-67
2023/07/05 12:46:13;;;;;;;8.10;5.90;;;;;;;;;;4963508;28;20189;-67
2023/07/05 12:52:39;;;;;;;8.60;5.80;;;;;;;;;;4971070;28;20307;-71
2023/07/05 12:59:19;;;;;;;8.30;5.67;;;;;;;;;;4985789;28;20227;-70
2023/07/05 13:10:06;;;;;;;10.37;6.17;;;;;;;;;;4987194;28;20602;-70
2023/07/05 13:16:56;;;;;;;9.33;6.80;;;;;;;;;;4971689;28;20276;-68
2023/07/05 13:27:31;;;;;;;8.37;6.97;;;;;;;;;;4990249;28;20190;-70
2023/07/05 13:33:57;;;;;;;9.13;6.70;;;;;;;;;;4984023;28;20269;-69
2023/07/05 13:44:26;;;;;;;8.77;6.90;;;;;;;;;;4995968;28;20190;-69
2023/07/05 13:51:05;;;;;;;10.80;7.53;;;;;;;;;;4981810;28;20188;-69
2023/07/05 14:01:43;;;;;;;11.93;8.23;;;;;;;;;;5010174;28;20188;-69
2023/07/05 14:08:14;;;;;;;10.90;8.33;;;;;;;;;;4995335;28;20187;-70
2023/07/05 14:14:40;;;;;;;12.77;8.50;;;;;;;;;;5012931;28;20257;-70
2023/07/05 14:21:22;;;;;;;11.20;8.60;;;;;;;;;;5018277;28;20682;-70
2023/07/05 14:27:49;;;;;;;12.73;8.30;;;;;;;;;;5016051;28;20241;-70
2023/07/05 14:34:16;;;;;;;13.13;9.03;;;;;;;;;;5015741;28;20212;-69
2023/07/05 14:40:47;;;;;;;14.13;9.10;;;;;;;;;;5017627;28;20193;-68
2023/07/05 14:51:42;;;;;;;13.63;8.77;;;;;;;;;;4903784;29;20218;-68
2023/07/05 15:02:20;;;;;;;13.03;9.13;;;;;;;;;;4897761;29;20186;-72
2023/07/05 15:12:46;;;;;;;11.73;9.63;;;;;;;;;;4911454;29;20231;-72
2023/07/05 15:19:12;;;;;;;12.90;9.60;;;;;;;;;;4976878;28;20712;-71
2023/07/05 15:36:53;;;;;;;16.27;10.80;;;;;;;;;;4953242;28;20249;-71
2023/07/05 15:43:21;;;;;;;13.47;9.83;;;;;;;;;;4951822;29;20237;-72
2023/07/05 16:06:32;;;;;;;12.37;8.70;;;;;;;;;;4917462;29;20208;-68
2023/07/05 16:12:59;;;;;;;14.07;10.63;;;;;;;;;;4948569;28;20200;-77
2023/07/05 16:19:26;;;;;;;14.57;10.30;;;;;;;;;;4952831;28;20237;-68
2023/07/05 16:25:57;;;;;;;14.60;11.30;;;;;;;;;;4955495;28;20188;-69
2023/07/05 16:32:25;;;;;;;19.43;12.63;;;;;;;;;;4956559;28;20192;-68
2023/07/05 16:38:51;;;;;;;16.20;11.63;;;;;;;;;;4951846;28;20302;-68
2023/07/05 16:45:18;;;;;;;19.13;12.93;;;;;;;;;;4966345;28;20239;-70
2023/07/05 16:51:46;;;;;;;20.97;11.90;;;;;;;;;;4943749;28;20227;-70
2023/07/05 16:58:13;;;;;;;16.50;11.60;;;;;;;;;;4933712;28;20228;-69
2023/07/05 17:08:44;;;;;;;20.03;12.50;;;;;;;;;;4954335;28;20231;-69
2023/07/05 17:15:12;;;;;;;21.73;14.70;;;;;;;;;;4956445;28;23491;-69
2023/07/05 17:22:14;;;;;;;22.43;14.90;;;;;;;;;;4979744;28;20583;-70
2023/07/05 17:28:42;;;;;;;21.07;13.97;;;;;;;;;;4982943;28;20241;-70
2023/07/05 17:35:09;;;;;;;17.87;10.83;;;;;;;;;;4953896;28;20329;-69
2023/07/05 17:41:37;;;;;;;13.70;10.03;;;;;;;;;;4980916;28;20259;-69
2023/07/05 17:48:03;;;;;;;12.43;8.53;;;;;;;;;;4975774;28;20184;-69
2023/07/05 17:54:24;;;;;;;10.77;8.30;;;;;;;;;;4983011;28;20320;-69
2023/07/05 18:13:05;;;;;;;12.10;8.60;;;;;;;;;;4992100;28;20238;-69
2023/07/05 18:19:32;;;;;;;13.63;9.57;;;;;;;;;;4994341;28;20201;-69
2023/07/05 18:26:19;;;;;;;12.73;9.50;;;;;;;;;;4972069;28;20217;-70
2023/07/05 18:32:56;;;;;;;10.30;7.63;;;;;;;;;;4971058;28;20177;-69
2023/07/05 18:43:52;;;;;;;10.87;6.70;;;;;;;;;;4970806;28;20192;-67
2023/07/05 18:50:18;;;;;;;9.47;7.40;;;;;;;;;;4977394;28;20216;-68
2023/07/05 18:56:44;;;;;;;8.73;6.57;;;;;;;;;;4974609;28;20735;-67
2023/07/05 19:14:57;;;;;;;8.70;5.80;;;;;;;;;;4892650;29;20222;-68
2023/07/05 19:25:30;;;;;;;7.53;5.57;;;;;;;;;;4965235;28;20265;-67
2023/07/05 19:32:04;;;;;;;7.17;5.67;;;;;;;;;;4965094;28;20252;-68
2023/07/05 19:38:34;;;;;;;6.77;5.23;;;;;;;;;;4960825;28;20182;-68
2023/07/05 19:45:03;;;;;;;10.37;6.57;;;;;;;;;;4958173;28;21028;-73
2023/07/05 19:51:29;;;;;;;7.53;5.83;;;;;;;;;;4965950;28;20280;-74
2023/07/05 19:57:56;;;;;;;8.57;6.53;;;;;;;;;;4963277;28;20184;-73
2023/07/05 20:04:25;;;;;;;8.60;5.57;;;;;;;;;;4969966;28;20175;-73
2023/07/05 20:14:56;;;;;;;9.53;7.63;;;;;;;;;;4991100;28;20220;-73
2023/07/05 20:21:22;;;;;;;9.77;7.83;;;;;;;;;;5005245;28;21081;-74
2023/07/05 20:27:51;;;;;;;12.57;8.90;;;;;;;;;;5007092;28;20187;-73
2023/07/05 20:34:20;;;;;;;11.17;9.00;;;;;;;;;;4988049;28;20203;-74
2023/07/05 20:40:47;;;;;;;37.37;19.33;;;;;;;;;;5003288;28;20187;-73
2023/07/05 20:47:50;;;;;;;20.70;11.77;;;;;;;;;;4988894;28;20168;-73
2023/07/05 20:54:17;;;;;;;11.13;7.53;;;;;;;;;;5005726;28;20202;-74
2023/07/05 21:01:19;;;;;;;12.53;7.37;;;;;;;;;;4909423;29;20218;-73
2023/07/05 21:07:49;;;;;;;8.50;6.47;;;;;;;;;;4928242;29;20185;-73
2023/07/05 21:18:48;;;;;;;9.77;6.73;;;;;;;;;;4909439;29;20544;-72
2023/07/05 21:25:14;;;;;;;8.87;6.60;;;;;;;;;;4927765;29;20206;-72
2023/07/05 21:31:41;;;;;;;7.67;5.73;;;;;;;;;;4988465;28;20666;-73
2023/07/05 21:38:09;;;;;;;9.20;6.90;;;;;;;;;;4988128;28;20587;-73
2023/07/05 21:52:28;;;;;;;9.80;6.33;;;;;;;;;;5007476;28;20167;-72
2023/07/05 21:59:02;;;;;;;10.00;6.00;;;;;;;;;;5007275;28;20631;-72
2023/07/05 22:05:29;;;;;;;9.97;6.70;;;;;;;;;;5005736;28;20283;-72
2023/07/05 22:20:44;;;;;;;10.57;6.70;;;;;;;;;;4925862;29;20190;-72
2023/07/05 22:27:09;;;;;;;13.17;7.37;;;;;;;;;;4946728;29;20173;-72
2023/07/05 22:37:34;;;;;;;10.70;7.73;;;;;;;;;;4967215;28;20208;-72
2023/07/05 22:48:33;;;;;;;8.33;6.23;;;;;;;;;;4950283;29;20233;-72
2023/07/05 22:54:59;;;;;;;9.17;7.10;;;;;;;;;;4946795;29;20272;-72
2023/07/05 23:01:26;;;;;;;11.03;7.30;;;;;;;;;;4949239;29;20188;-72
2023/07/05 23:07:51;;;;;;;9.00;7.37;;;;;;;;;;4949551;29;20233;-72
2023/07/05 23:14:23;;;;;;;7.83;6.50;;;;;;;;;;4929892;29;20263;-73
2023/07/05 23:25:01;;;;;;;10.03;7.33;;;;;;;;;;4990411;28;20216;-73
2023/07/05 23:31:32;;;;;;;11.77;7.77;;;;;;;;;;4990297;28;20777;-72
2023/07/05 23:38:00;;;;;;;12.63;7.83;;;;;;;;;;4990196;28;20246;-72
2023/07/05 23:44:37;;;;;;;11.97;7.50;;;;;;;;;;4955655;28;20220;-72
2023/07/05 23:51:42;;;;;;;10.70;7.80;;;;;;;;;;5009591;28;20183;-72
2023/07/05 23:58:09;;;;;;;9.57;6.87;;;;;;;;;;5009467;28;20183;-72
